Time;durP1;ratioP1;P1;durP2;ratioP2;P2;SDS_P1;SDS_P2;PMS_P1;PMS_P2;Temp;Humidity;BMP_temperature;BMP_pressure;BME280_temperature;BME280_humidity;BME280_pressure;Samples;Min_cycle;Max_cycle;Signal;HPM_P1;HPM_P2
2021/03/17 00:00:30;;;;;;;3.60;3.30;;;4.60;99.90;;;;;;5037232;28;20096;-72
2021/03/17 00:02:56;;;;;;;2.88;2.58;;;4.70;99.90;;;;;;5031864;28;20049;-72
2021/03/17 00:05:28;;;;;;;3.60;3.03;;;4.70;99.90;;;;;;5032063;28;20045;-72
2021/03/17 00:07:54;;;;;;;3.38;3.08;;;4.70;99.90;;;;;;5015584;28;20409;-73
2021/03/17 00:10:20;;;;;;;4.97;3.15;;;4.70;99.90;;;;;;4998450;28;20022;-74
2021/03/17 00:12:48;;;;;;;3.72;3.03;;;4.70;99.90;;;;;;5013621;28;20042;-73
2021/03/17 00:15:19;;;;;;;3.40;3.10;;;4.70;99.90;;;;;;5021042;28;20022;-71
2021/03/17 00:17:45;;;;;;;4.00;3.08;;;4.70;99.90;;;;;;5009762;28;20026;-72
2021/03/17 00:20:11;;;;;;;2.80;2.53;;;4.70;99.90;;;;;;5023999;28;20375;-72
2021/03/17 00:22:37;;;;;;;3.58;3.10;;;4.70;99.90;;;;;;5032316;28;20029;-72
2021/03/17 00:25:03;;;;;;;3.45;3.20;;;4.70;99.90;;;;;;5031298;28;20030;-72
2021/03/17 00:27:29;;;;;;;3.65;3.35;;;4.60;99.90;;;;;;5033290;28;20030;-72
2021/03/17 00:29:54;;;;;;;4.03;3.55;;;4.60;99.90;;;;;;5027617;28;20074;-73
2021/03/17 00:32:20;;;;;;;2.95;2.75;;;4.60;99.90;;;;;;5027567;28;20398;-72
2021/03/17 00:34:46;;;;;;;4.10;3.33;;;4.60;99.90;;;;;;5024380;28;20052;-71
2021/03/17 00:37:11;;;;;;;3.17;2.85;;;4.60;99.90;;;;;;5028075;28;20032;-72
2021/03/17 00:39:37;;;;;;;3.33;2.95;;;4.60;99.90;;;;;;5038551;28;20060;-72
2021/03/17 00:42:03;;;;;;;3.55;3.08;;;4.60;99.90;;;;;;5028043;28;20041;-72
2021/03/17 00:44:28;;;;;;;3.25;2.95;;;4.70;99.90;;;;;;5028404;28;20018;-71
2021/03/17 00:46:54;;;;;;;3.72;3.42;;;4.60;99.90;;;;;;5029108;28;20076;-70
2021/03/17 00:49:19;;;;;;;3.38;3.08;;;4.60;99.90;;;;;;5029525;28;20021;-72
2021/03/17 00:51:45;;;;;;;4.00;3.60;;;4.60;99.90;;;;;;5029870;28;20042;-72
2021/03/17 00:54:11;;;;;;;3.90;3.35;;;4.50;99.90;;;;;;5028779;28;20268;-72
2021/03/17 00:56:36;;;;;;;3.80;3.40;;;4.50;99.90;;;;;;5031963;28;20033;-72
2021/03/17 00:59:02;;;;;;;3.65;3.28;;;4.50;99.90;;;;;;5039834;28;20056;-71
2021/03/17 01:01:31;;;;;;;4.07;3.75;;;4.50;99.90;;;;;;5028970;28;20032;-71
2021/03/17 01:03:56;;;;;;;4.18;3.78;;;4.50;99.90;;;;;;5028923;28;20025;-72
2021/03/17 01:06:22;;;;;;;3.42;3.13;;;4.50;99.90;;;;;;5024018;28;20113;-71
2021/03/17 01:08:47;;;;;;;3.53;3.20;;;4.40;99.90;;;;;;5022558;28;20033;-71
2021/03/17 01:11:14;;;;;;;4.60;4.20;;;4.30;99.90;;;;;;5028441;28;20541;-73
2021/03/17 01:13:39;;;;;;;4.25;3.85;;;4.30;99.90;;;;;;5027031;28;20363;-72
2021/03/17 01:16:05;;;;;;;4.10;3.70;;;4.30;1.00;;;;;;5032775;28;20073;-72
2021/03/17 01:18:31;;;;;;;4.25;3.85;;;4.30;1.00;;;;;;5025967;28;20094;-72
2021/03/17 01:20:57;;;;;;;3.83;3.53;;;4.20;1.00;;;;;;5013707;28;20065;-72
2021/03/17 01:23:23;;;;;;;4.50;4.10;;;4.30;1.00;;;;;;5012888;28;20026;-72
2021/03/17 01:25:48;;;;;;;4.28;3.88;;;4.30;1.00;;;;;;5017889;28;20028;-72
2021/03/17 01:28:14;;;;;;;4.90;4.47;;;4.30;1.00;;;;;;5015728;28;20026;-72
2021/03/17 01:30:46;;;;;;;4.22;3.83;;;4.30;1.00;;;;;;5023299;28;20071;-72
2021/03/17 01:33:13;;;;;;;4.72;4.32;;;4.30;1.00;;;;;;5029911;28;20038;-72
2021/03/17 01:35:40;;;;;;;4.93;4.47;;;4.40;1.00;;;;;;5024962;28;20057;-72
2021/03/17 01:38:06;;;;;;;4.88;4.40;;;4.40;1.00;;;;;;5032777;28;20025;-72
2021/03/17 01:40:33;;;;;;;4.20;3.90;;;4.50;1.00;;;;;;5032789;28;20025;-72
2021/03/17 01:42:59;;;;;;;4.15;3.75;;;4.40;1.00;;;;;;5032732;28;20025;-72
2021/03/17 01:45:24;;;;;;;4.47;4.07;;;4.40;1.00;;;;;;5036320;28;20029;-73
2021/03/17 01:47:51;;;;;;;3.85;3.45;;;4.30;1.00;;;;;;5028155;28;20033;-72
2021/03/17 01:50:21;;;;;;;4.00;3.50;;;4.40;1.00;;;;;;5033663;28;20094;-73
2021/03/17 01:52:47;;;;;;;4.45;4.05;;;4.40;1.00;;;;;;5028113;28;20576;-73
2021/03/17 01:55:13;;;;;;;4.00;3.60;;;4.30;1.00;;;;;;5027631;28;20041;-72
2021/03/17 01:57:39;;;;;;;4.20;3.80;;;4.30;1.00;;;;;;5035897;28;20036;-72
2021/03/17 02:00:09;;;;;;;5.22;3.63;;;4.30;1.00;;;;;;5035786;28;20033;-73
2021/03/17 02:02:39;;;;;;;5.15;3.90;;;4.30;1.00;;;;;;5033566;28;20041;-71
2021/03/17 02:05:13;;;;;;;4.47;4.07;;;4.30;1.00;;;;;;5027704;28;20080;-72
2021/03/17 02:07:40;;;;;;;3.97;3.55;;;4.30;1.00;;;;;;5036121;28;20034;-73
2021/03/17 02:10:17;;;;;;;4.20;3.83;;;4.30;1.00;;;;;;5036367;28;20029;-71
2021/03/17 02:12:49;;;;;;;4.78;4.38;;;4.30;1.00;;;;;;5032289;28;20025;-72
2021/03/17 02:15:33;;;;;;;4.93;3.47;;;4.30;1.00;;;;;;5027289;28;20021;-71
2021/03/17 02:18:11;;;;;;;3.40;3.10;;;4.30;1.00;;;;;;5031858;28;20500;-72
2021/03/17 02:20:55;;;;;;;4.00;3.22;;;4.40;1.00;;;;;;5002184;28;20033;-71
2021/03/17 02:23:43;;;;;;;3.97;3.60;;;4.30;1.00;;;;;;5036452;28;20027;-72
2021/03/17 02:26:50;;;;;;;4.65;3.30;;;4.20;1.00;;;;;;5027730;28;20033;-73
2021/03/17 02:29:53;;;;;;;3.20;2.75;;;4.30;1.00;;;;;;4991526;28;20494;-72
2021/03/17 02:32:51;;;;;;;3.38;3.08;;;4.20;1.00;;;;;;5029377;28;20478;-72
2021/03/17 02:35:20;;;;;;;3.92;3.53;;;4.20;1.00;;;;;;5032286;28;20041;-72
2021/03/17 02:37:49;;;;;;;3.22;2.92;;;4.20;1.00;;;;;;5030428;28;20029;-72
2021/03/17 02:40:29;;;;;;;3.58;3.28;;;4.20;1.00;;;;;;5025373;28;20064;-71
2021/03/17 02:43:19;;;;;;;2.65;2.45;;;4.20;1.00;;;;;;5022810;28;20026;-71
2021/03/17 02:45:52;;;;;;;2.50;2.30;;;4.20;1.00;;;;;;5017063;28;20046;-72
2021/03/17 02:48:23;;;;;;;2.63;2.40;;;4.10;1.00;;;;;;5015981;28;20051;-72
2021/03/17 02:50:52;;;;;;;2.95;2.65;;;4.10;1.00;;;;;;5026669;28;20066;-71
2021/03/17 02:53:21;;;;;;;3.47;3.00;;;4.10;1.00;;;;;;5034611;28;20044;-71
2021/03/17 02:56:11;;;;;;;3.72;2.75;;;4.00;1.00;;;;;;5033058;28;20018;-73
2021/03/17 02:58:42;;;;;;;3.28;2.97;;;4.00;1.00;;;;;;5021871;28;20029;-72
2021/03/17 03:01:08;;;;;;;;;;;4.00;1.00;;;;;;5023096;28;20109;-72
2021/03/17 03:03:36;;;;;;;3.38;3.03;;;4.00;1.00;;;;;;5026314;28;19909;-72
2021/03/17 03:06:04;;;;;;;3.30;3.00;;;3.90;1.00;;;;;;5034877;28;20049;-72
2021/03/17 03:08:30;;;;;;;4.28;3.92;;;4.00;1.00;;;;;;5028788;28;20030;-71
2021/03/17 03:10:57;;;;;;;4.55;4.15;;;3.90;1.00;;;;;;5026368;28;20104;-72
2021/03/17 03:13:26;;;;;;;4.55;3.40;;;3.90;1.00;;;;;;5034530;28;20053;-71
2021/03/17 03:15:56;;;;;;;2.92;2.72;;;3.90;1.00;;;;;;5034588;28;20486;-71
2021/03/17 03:18:24;;;;;;;3.15;2.63;;;3.90;1.00;;;;;;5011344;28;20108;-72
2021/03/17 03:20:52;;;;;;;3.00;2.70;;;3.90;1.00;;;;;;5027983;28;20052;-71
2021/03/17 03:23:19;;;;;;;3.17;2.88;;;3.90;1.00;;;;;;5034326;28;20057;-72
2021/03/17 03:25:46;;;;;;;3.97;2.80;;;3.80;1.00;;;;;;5024124;28;20428;-72
2021/03/17 03:28:13;;;;;;;2.80;2.60;;;3.90;1.00;;;;;;5017673;28;20084;-72
2021/03/17 03:30:43;;;;;;;4.88;3.08;;;3.90;1.00;;;;;;5013076;28;20018;-73
2021/03/17 03:33:09;;;;;;;2.85;2.55;;;3.80;1.00;;;;;;5014361;28;20072;-73
2021/03/17 03:35:35;;;;;;;3.20;2.90;;;3.80;1.00;;;;;;5014512;28;20022;-73
2021/03/17 03:38:04;;;;;;;3.10;2.80;;;3.70;1.00;;;;;;5022167;28;20080;-72
2021/03/17 03:40:30;;;;;;;3.15;2.85;;;3.80;1.00;;;;;;5039229;28;20045;-72
2021/03/17 03:42:56;;;;;;;3.22;2.92;;;3.70;1.00;;;;;;5025432;28;20033;-72
2021/03/17 03:45:21;;;;;;;3.08;2.78;;;3.70;1.00;;;;;;5026144;28;20433;-72
2021/03/17 03:47:47;;;;;;;3.38;3.08;;;3.70;1.00;;;;;;5015210;28;20042;-72
2021/03/17 03:50:17;;;;;;;2.55;2.35;;;3.70;1.00;;;;;;5019505;28;20117;-71
2021/03/17 03:53:07;;;;;;;3.13;2.83;;;3.70;1.00;;;;;;5018950;28;20029;-73
2021/03/17 03:55:51;;;;;;;3.17;2.80;;;3.70;1.00;;;;;;5034010;28;20036;-72
2021/03/17 03:58:32;;;;;;;2.78;2.42;;;3.70;1.00;;;;;;5027954;28;20035;-72
2021/03/17 04:01:45;;;;;;;2.65;2.45;;;3.60;1.00;;;;;;5026545;28;20026;-71
2021/03/17 04:04:14;;;;;;;3.47;3.17;;;3.60;1.00;;;;;;5012674;28;20037;-72
2021/03/17 04:06:44;;;;;;;3.58;3.28;;;3.60;1.00;;;;;;5035166;28;20051;-72
2021/03/17 04:09:10;;;;;;;3.97;3.63;;;3.60;1.00;;;;;;5034855;28;20133;-70
2021/03/17 04:11:40;;;;;;;4.15;3.13;;;3.60;1.00;;;;;;5021875;28;20077;-71
2021/03/17 04:14:08;;;;;;;3.40;3.10;;;3.60;1.00;;;;;;5021226;28;20093;-72
2021/03/17 04:16:35;;;;;;;3.53;3.22;;;3.70;1.00;;;;;;5031093;28;20026;-72
2021/03/17 04:19:02;;;;;;;3.88;3.33;;;3.70;1.00;;;;;;5038352;28;20017;-71
2021/03/17 04:21:33;;;;;;;4.45;4.05;;;3.70;1.00;;;;;;5027492;28;20036;-71
2021/03/17 04:24:00;;;;;;;;;;;3.70;1.00;;;;;;5028076;28;20071;-72
2021/03/17 04:26:27;;;;;;;4.47;4.07;;;3.70;1.00;;;;;;5033475;28;20292;-72
2021/03/17 04:28:55;;;;;;;3.50;3.20;;;3.70;1.00;;;;;;5033200;28;20018;-72
2021/03/17 04:31:22;;;;;;;4.05;3.70;;;3.70;1.00;;;;;;5031813;28;20025;-73
2021/03/17 04:33:49;;;;;;;4.75;4.35;;;3.80;1.00;;;;;;5032846;28;20028;-73
2021/03/17 04:36:15;;;;;;;4.28;3.88;;;3.70;1.00;;;;;;5022635;28;20025;-73
2021/03/17 04:38:42;;;;;;;4.90;4.50;;;3.70;1.00;;;;;;5029925;28;20075;-72
2021/03/17 04:41:08;;;;;;;5.35;4.85;;;3.70;1.00;;;;;;5020850;28;20394;-72
2021/03/17 04:43:37;;;;;;;5.28;4.88;;;3.70;1.00;;;;;;5024493;28;20018;-72
2021/03/17 04:46:03;;;;;;;5.72;5.10;;;3.70;1.00;;;;;;5032677;28;20029;-72
2021/03/17 04:48:29;;;;;;;5.35;4.90;;;3.70;1.00;;;;;;5026413;28;20041;-72
2021/03/17 04:50:57;;;;;;;7.97;5.63;;;3.70;1.00;;;;;;5022800;28;20031;-72
2021/03/17 04:53:23;;;;;;;6.10;5.53;;;3.80;1.00;;;;;;5021320;28;20053;-72
2021/03/17 04:55:49;;;;;;;5.57;5.07;;;3.70;1.00;;;;;;5032656;28;20053;-73
2021/03/17 04:58:22;;;;;;;7.57;6.88;;;3.60;1.00;;;;;;5026893;28;20636;-72
2021/03/17 05:00:49;;;;;;;6.90;6.20;;;3.70;1.00;;;;;;5024464;28;20493;-72
2021/03/17 05:03:19;;;;;;;6.25;5.75;;;3.70;1.00;;;;;;5032665;28;20025;-70
2021/03/17 05:05:46;;;;;;;6.20;5.60;;;3.70;1.00;;;;;;5032787;28;20481;-72
2021/03/17 05:08:15;;;;;;;6.93;6.32;;;3.60;1.00;;;;;;5032626;28;20335;-73
2021/03/17 05:10:42;;;;;;;8.02;7.32;;;3.60;1.00;;;;;;5032174;28;20053;-71
2021/03/17 05:13:11;;;;;;;8.00;7.00;;;3.60;1.00;;;;;;5025547;28;20082;-73
2021/03/17 05:15:37;;;;;;;7.40;6.70;;;3.70;1.00;;;;;;5017188;28;20032;-72
2021/03/17 05:18:04;;;;;;;7.47;6.80;;;3.70;1.00;;;;;;5021265;28;20034;-71
2021/03/17 05:20:31;;;;;;;8.32;6.88;;;3.70;1.00;;;;;;5030220;28;20167;-72
2021/03/17 05:22:58;;;;;;;8.27;7.55;;;3.70;1.00;;;;;;5032263;28;20033;-72
2021/03/17 05:25:25;;;;;;;8.68;7.85;;;3.70;1.00;;;;;;5026769;28;20101;-72
2021/03/17 05:27:56;;;;;;;9.13;8.23;;;3.70;1.00;;;;;;5025760;28;20029;-72
2021/03/17 05:30:24;;;;;;;8.57;7.78;;;3.70;1.00;;;;;;5032240;28;20017;-72
2021/03/17 05:32:53;;;;;;;9.48;8.48;;;3.70;1.00;;;;;;5030986;28;20095;-72
2021/03/17 05:35:19;;;;;;;10.07;9.07;;;3.70;1.00;;;;;;5029732;28;20459;-72
2021/03/17 05:37:46;;;;;;;9.82;8.48;;;3.80;1.00;;;;;;5016803;28;20158;-73
2021/03/17 05:40:14;;;;;;;9.60;8.70;;;3.80;1.00;;;;;;5022981;28;20029;-72
2021/03/17 05:42:41;;;;;;;10.52;9.35;;;3.80;1.00;;;;;;5012159;28;20052;-73
2021/03/17 05:45:21;;;;;;;9.63;8.63;;;3.80;1.00;;;;;;5019678;28;20509;-73
2021/03/17 05:47:50;;;;;;;10.60;8.83;;;3.80;1.00;;;;;;5019176;28;20362;-72
2021/03/17 05:50:21;;;;;;;10.85;8.88;;;3.90;1.00;;;;;;5030544;28;20029;-72
2021/03/17 05:52:47;;;;;;;12.65;9.43;;;3.80;1.00;;;;;;5031093;28;20507;-73
2021/03/17 05:55:15;;;;;;;11.00;9.90;;;3.80;1.00;;;;;;5032268;28;20104;-72
2021/03/17 05:57:41;;;;;;;10.82;9.82;;;3.90;1.00;;;;;;5032044;28;20025;-72
2021/03/17 06:00:16;;;;;;;10.95;9.80;;;3.90;1.00;;;;;;5025530;28;20108;-73
2021/03/17 06:02:42;;;;;;;10.70;9.70;;;3.90;1.00;;;;;;5016512;28;20026;-72
2021/03/17 06:05:10;;;;;;;11.50;10.07;;;4.00;1.00;;;;;;5019986;28;20026;-72
2021/03/17 06:08:00;;;;;;;12.82;11.07;;;3.90;1.00;;;;;;5019680;28;20026;-73
2021/03/17 06:10:27;;;;;;;12.75;11.45;;;3.90;1.00;;;;;;5016084;28;20483;-73
2021/03/17 06:12:59;;;;;;;12.00;10.75;;;3.90;1.00;;;;;;5031771;28;20057;-71
2021/03/17 06:15:26;;;;;;;14.00;12.25;;;3.90;1.00;;;;;;5031584;28;20021;-72
2021/03/17 06:17:59;;;;;;;13.10;10.98;;;3.90;1.00;;;;;;5020936;28;20113;-73
2021/03/17 06:20:25;;;;;;;13.20;11.50;;;3.90;1.00;;;;;;5030627;28;20037;-72
2021/03/17 06:22:51;;;;;;;14.40;11.75;;;3.90;1.00;;;;;;5031663;28;20026;-73
2021/03/17 06:25:17;;;;;;;14.63;12.50;;;3.80;1.00;;;;;;5028831;28;20125;-72
2021/03/17 06:27:44;;;;;;;12.75;11.38;;;3.90;1.00;;;;;;5014644;28;20033;-73
2021/03/17 06:30:11;;;;;;;15.02;12.40;;;3.90;1.00;;;;;;5015937;28;20481;-72
2021/03/17 06:32:38;;;;;;;15.02;13.52;;;4.00;1.00;;;;;;5021902;28;20030;-73
2021/03/17 06:35:22;;;;;;;15.88;13.23;;;4.00;1.00;;;;;;5030981;28;20030;-73
2021/03/17 06:37:49;;;;;;;15.13;12.07;;;4.00;1.00;;;;;;5019458;28;20026;-73
2021/03/17 06:40:35;;;;;;;14.15;12.45;;;4.10;1.00;;;;;;5030808;28;20034;-73
2021/03/17 06:43:09;;;;;;;14.40;12.50;;;4.10;1.00;;;;;;5028900;28;20018;-73
2021/03/17 06:45:44;;;;;;;15.07;13.18;;;4.10;1.00;;;;;;5037990;28;20033;-73
2021/03/17 06:48:27;;;;;;;15.10;13.27;;;4.10;1.00;;;;;;5026863;28;20030;-72
2021/03/17 06:51:14;;;;;;;17.73;14.40;;;4.10;1.00;;;;;;5015759;28;20026;-73
2021/03/17 06:53:48;;;;;;;17.90;12.52;;;4.10;1.00;;;;;;5015018;28;20018;-74
2021/03/17 06:56:17;;;;;;;15.40;13.80;;;4.10;1.00;;;;;;5022950;28;20389;-72
2021/03/17 06:58:47;;;;;;;18.20;13.57;;;4.00;1.00;;;;;;5027862;28;20505;-73
2021/03/17 07:01:42;;;;;;;17.13;13.50;;;4.10;1.00;;;;;;5023656;28;20034;-73
2021/03/17 07:04:09;;;;;;;16.85;13.75;;;4.10;1.00;;;;;;5013503;28;20092;-72
2021/03/17 07:06:42;;;;;;;13.77;11.88;;;4.10;1.00;;;;;;5014962;28;20049;-73
2021/03/17 07:09:21;;;;;;;15.10;12.77;;;4.10;1.00;;;;;;5015194;28;20508;-72
2021/03/17 07:11:50;;;;;;;14.13;12.15;;;4.20;1.00;;;;;;5023539;28;20035;-73
2021/03/17 07:14:24;;;;;;;18.38;13.65;;;4.20;1.00;;;;;;5033186;28;20100;-73
2021/03/17 07:16:50;;;;;;;12.20;10.98;;;4.30;1.00;;;;;;5029020;28;20017;-73
2021/03/17 07:19:37;;;;;;;14.05;12.65;;;4.40;1.00;;;;;;5023785;28;20032;-71
2021/03/17 07:22:13;;;;;;;18.95;11.80;;;4.50;1.00;;;;;;5030852;28;20105;-73
2021/03/17 07:24:41;;;;;;;13.25;11.95;;;4.60;1.00;;;;;;5033033;28;20105;-73
2021/03/17 07:27:20;;;;;;;13.95;11.02;;;4.50;1.00;;;;;;5032395;28;20485;-73
2021/03/17 07:30:06;;;;;;;11.88;10.65;;;4.60;1.00;;;;;;5035255;28;20032;-72
2021/03/17 07:32:58;;;;;;;11.23;10.02;;;4.60;99.90;;;;;;5032990;28;20033;-72
2021/03/17 07:35:37;;;;;;;11.23;9.90;;;4.40;1.00;;;;;;5035523;28;20080;-73
2021/03/17 07:38:06;;;;;;;12.23;10.93;;;4.40;1.00;;;;;;5029168;28;20044;-73
2021/03/17 07:40:38;;;;;;;11.07;9.68;;;4.40;1.00;;;;;;5014883;28;20026;-72
2021/03/17 07:43:05;;;;;;;11.20;10.10;;;4.50;1.00;;;;;;5015481;28;20497;-73
2021/03/17 07:45:33;;;;;;;12.85;10.73;;;4.60;99.90;;;;;;5020395;28;20034;-72
2021/03/17 07:48:04;;;;;;;13.90;11.65;;;4.60;99.90;;;;;;5027920;28;20036;-73
2021/03/17 07:50:30;;;;;;;11.65;9.77;;;4.80;99.90;;;;;;5023135;28;20093;-74
2021/03/17 07:53:00;;;;;;;14.30;11.02;;;4.80;99.90;;;;;;5028653;28;20441;-72
2021/03/17 07:55:27;;;;;;;12.77;10.25;;;4.70;99.90;;;;;;5034237;28;20032;-73
2021/03/17 07:57:53;;;;;;;11.63;10.45;;;4.70;99.90;;;;;;5033826;28;20516;-72
2021/03/17 08:00:19;;;;;;;13.45;10.10;;;4.80;99.90;;;;;;5034134;28;20084;-73
2021/03/17 08:02:45;;;;;;;12.27;9.35;;;4.90;99.90;;;;;;5015845;28;20064;-72
2021/03/17 08:05:12;;;;;;;10.95;9.77;;;5.00;99.90;;;;;;5022309;28;20494;-73
2021/03/17 08:07:39;;;;;;;9.63;7.90;;;5.00;99.90;;;;;;5023380;28;20066;-73
2021/03/17 08:10:05;;;;;;;15.27;7.95;;;5.00;99.90;;;;;;5022860;28;20108;-74
2021/03/17 08:12:31;;;;;;;6.72;6.03;;;5.00;99.90;;;;;;5025352;28;20060;-74
2021/03/17 08:14:58;;;;;;;8.05;5.55;;;5.00;99.90;;;;;;5021812;28;20038;-74
2021/03/17 08:17:36;;;;;;;6.65;5.82;;;5.20;99.90;;;;;;5016153;28;20041;-73
2021/03/17 08:20:20;;;;;;;8.88;5.97;;;5.50;99.90;;;;;;5022811;28;20590;-74
2021/03/17 08:22:47;;;;;;;7.28;6.57;;;5.50;99.90;;;;;;5005337;28;20102;-74
2021/03/17 08:25:34;;;;;;;7.43;6.30;;;5.70;99.90;;;;;;5031127;28;20056;-73
2021/03/17 08:28:19;;;;;;;10.30;9.05;;;5.80;99.90;;;;;;5036794;28;20085;-75
2021/03/17 08:30:46;;;;;;;10.85;7.55;;;5.70;99.90;;;;;;5025384;28;20061;-73
2021/03/17 08:33:29;;;;;;;12.30;8.93;;;5.80;99.90;;;;;;5037856;28;20021;-74
2021/03/17 08:36:13;;;;;;;9.32;7.70;;;5.90;99.90;;;;;;5036551;28;20025;-72
2021/03/17 08:38:53;;;;;;;10.93;8.88;;;6.20;99.90;;;;;;5010395;28;20026;-73
2021/03/17 08:41:37;;;;;;;10.20;8.38;;;6.30;99.90;;;;;;5030806;28;20026;-74
2021/03/17 08:44:15;;;;;;;10.35;9.00;;;6.30;99.90;;;;;;5035374;28;20014;-74
2021/03/17 08:46:41;;;;;;;10.13;8.20;;;5.90;99.90;;;;;;5033244;28;20025;-75
2021/03/17 08:49:09;;;;;;;11.32;9.43;;;6.00;99.90;;;;;;5025927;28;20053;-75
2021/03/17 08:51:57;;;;;;;10.32;9.05;;;6.20;99.90;;;;;;5021469;28;20022;-73
2021/03/17 08:54:37;;;;;;;12.10;9.38;;;6.60;99.90;;;;;;5018514;28;20041;-73
2021/03/17 08:57:14;;;;;;;10.48;8.52;;;6.90;99.90;;;;;;5023463;28;20497;-74
2021/03/17 08:59:48;;;;;;;11.48;9.35;;;6.40;99.90;;;;;;5031643;28;20022;-73
2021/03/17 09:02:19;;;;;;;10.82;7.95;;;6.30;99.90;;;;;;5036017;28;20069;-74
2021/03/17 09:04:57;;;;;;;8.00;6.68;;;6.30;99.90;;;;;;5035646;28;20017;-74
2021/03/17 09:07:34;;;;;;;7.50;5.68;;;6.60;99.90;;;;;;5015724;28;20427;-74
2021/03/17 09:10:11;;;;;;;6.95;6.13;;;6.70;27.80;;;;;;5014998;28;20093;-74
2021/03/17 09:12:39;;;;;;;7.78;5.28;;;7.00;27.20;;;;;;5015317;28;20685;-74
2021/03/17 09:15:12;;;;;;;9.45;6.13;;;7.00;1.00;;;;;;5022104;28;20021;-76
2021/03/17 09:17:57;;;;;;;4.90;4.40;;;7.20;99.90;;;;;;4994485;28;20026;-74
2021/03/17 09:20:29;;;;;;;4.18;3.78;;;6.90;99.90;;;;;;5004758;28;20030;-73
2021/03/17 09:22:57;;;;;;;5.13;3.85;;;7.40;99.90;;;;;;5025774;28;20101;-73
2021/03/17 09:25:26;;;;;;;4.63;3.83;;;7.60;99.90;;;;;;5024049;28;20022;-73
2021/03/17 09:28:08;;;;;;;3.50;3.00;;;7.60;87.30;;;;;;5020143;28;20504;-74
2021/03/17 09:30:42;;;;;;;5.13;4.20;;;7.00;99.90;;;;;;5015559;28;20052;-75
2021/03/17 09:33:11;;;;;;;4.45;3.30;;;7.10;99.90;;;;;;5016284;28;20505;-75
2021/03/17 09:35:37;;;;;;;5.38;3.30;;;7.80;1.00;;;;;;5015692;28;20411;-74
2021/03/17 09:38:09;;;;;;;4.20;3.47;;;7.90;99.90;;;;;;5030020;28;20060;-74
2021/03/17 09:40:38;;;;;;;5.57;3.10;;;8.20;99.90;;;;;;5034460;28;20080;-73
2021/03/17 09:43:04;;;;;;;4.35;3.80;;;8.40;99.90;;;;;;5018265;28;20092;-75
2021/03/17 09:45:30;;;;;;;4.28;3.33;;;8.30;99.90;;;;;;5030113;28;20041;-73
2021/03/17 09:47:57;;;;;;;4.15;3.75;;;8.10;99.90;;;;;;5026739;28;20032;-74
2021/03/17 09:50:25;;;;;;;4.32;3.42;;;7.50;44.00;;;;;;5023735;28;20030;-74
2021/03/17 09:52:51;;;;;;;6.03;3.95;;;7.30;1.00;;;;;;5025412;28;20029;-73
2021/03/17 09:55:31;;;;;;;7.57;4.32;;;7.00;99.90;;;;;;5025490;28;20033;-73
2021/03/17 09:58:05;;;;;;;4.57;3.70;;;7.30;99.90;;;;;;5022824;28;20033;-74
2021/03/17 10:00:33;;;;;;;4.78;3.50;;;7.40;99.90;;;;;;5032743;28;20033;-74
2021/03/17 10:03:01;;;;;;;7.20;4.53;;;7.50;99.90;;;;;;5024122;28;20022;-74
2021/03/17 10:05:27;;;;;;;5.20;3.40;;;7.80;1.00;;;;;;5026651;28;20049;-73
2021/03/17 10:07:52;;;;;;;3.50;3.20;;;7.60;1.00;;;;;;5037153;28;20102;-74
2021/03/17 10:10:18;;;;;;;3.75;3.22;;;8.20;99.90;;;;;;5021990;28;20026;-75
2021/03/17 10:12:44;;;;;;;4.70;3.95;;;8.70;99.90;;;;;;5028653;28;20064;-74
2021/03/17 10:15:12;;;;;;;7.43;3.90;;;8.60;99.90;;;;;;5036879;28;20095;-73
2021/03/17 10:17:38;;;;;;;4.60;3.97;;;8.20;48.30;;;;;;5028382;28;20026;-74
2021/03/17 10:20:15;;;;;;;6.88;4.43;;;7.80;99.90;;;;;;5023615;28;20041;-75
2021/03/17 10:22:41;;;;;;;5.63;4.35;;;7.70;96.20;;;;;;5030281;28;20025;-72
2021/03/17 10:25:15;;;;;;;4.95;4.35;;;7.90;1.00;;;;;;5031491;28;20029;-74
2021/03/17 10:27:43;;;;;;;7.50;4.53;;;7.60;1.00;;;;;;5025426;28;20026;-75
2021/03/17 10:30:15;;;;;;;9.52;4.95;;;7.40;99.90;;;;;;5028020;28;20025;-74
2021/03/17 10:32:42;;;;;;;5.03;4.53;;;7.30;99.90;;;;;;5011329;28;20117;-73
2021/03/17 10:35:11;;;;;;;7.07;4.32;;;7.20;99.90;;;;;;5024540;28;20343;-73
2021/03/17 10:37:38;;;;;;;5.28;4.10;;;7.40;99.90;;;;;;5021424;28;20029;-76
2021/03/17 10:40:17;;;;;;;5.55;4.22;;;7.80;99.90;;;;;;5020973;28;20021;-74
2021/03/17 10:42:57;;;;;;;4.75;4.22;;;8.20;99.90;;;;;;5007524;28;20043;-75
2021/03/17 10:45:50;;;;;;;4.83;3.40;;;8.20;1.00;;;;;;5024428;28;20504;-74
2021/03/17 10:48:18;;;;;;;5.65;4.15;;;8.70;51.50;;;;;;5023473;28;20133;-73
2021/03/17 10:50:45;;;;;;;3.00;2.67;;;8.40;99.90;;;;;;5033013;28;20022;-74
2021/03/17 10:53:22;;;;;;;5.55;3.42;;;8.70;99.90;;;;;;5033691;28;20061;-74
2021/03/17 10:55:50;;;;;;;3.90;2.88;;;8.70;1.00;;;;;;5028318;28;20478;-75
2021/03/17 10:58:26;;;;;;;4.78;3.35;;;8.60;99.90;;;;;;5025485;28;20040;-74
2021/03/17 11:00:57;;;;;;;6.50;3.20;;;8.50;93.90;;;;;;5023722;28;20022;-76
2021/03/17 11:03:28;;;;;;;3.75;2.92;;;7.70;70.00;;;;;;5017198;28;20026;-74
2021/03/17 11:06:13;;;;;;;4.75;3.35;;;7.80;1.00;;;;;;5022138;28;20080;-74
2021/03/17 11:08:39;;;;;;;5.03;3.10;;;8.00;99.90;;;;;;5033241;28;20021;-74
2021/03/17 11:11:10;;;;;;;7.03;3.05;;;8.00;99.90;;;;;;5026601;28;20026;-74
2021/03/17 11:13:40;;;;;;;3.80;3.30;;;7.80;92.60;;;;;;5027120;28;20017;-73
2021/03/17 11:16:12;;;;;;;3.50;3.20;;;7.40;99.90;;;;;;5027266;28;20037;-73
2021/03/17 11:18:48;;;;;;;3.38;3.08;;;6.70;99.90;;;;;;5025526;28;20030;-75
2021/03/17 11:21:25;;;;;;;4.30;3.50;;;6.40;1.00;;;;;;5017100;28;20094;-75
2021/03/17 11:23:53;;;;;;;6.63;4.30;;;6.60;1.00;;;;;;5017194;28;20041;-75
2021/03/17 11:26:24;;;;;;;6.20;4.30;;;6.70;24.30;;;;;;5025760;28;20025;-76
2021/03/17 11:28:51;;;;;;;5.50;4.00;;;7.00;17.60;;;;;;5025452;28;20026;-74
2021/03/17 11:31:32;;;;;;;5.03;3.80;;;7.00;4.00;;;;;;5019181;28;20519;-74
2021/03/17 11:33:58;;;;;;;7.13;4.82;;;7.00;37.10;;;;;;5016238;28;20421;-74
2021/03/17 11:36:25;;;;;;;5.63;4.75;;;6.90;68.50;;;;;;5022579;28;20040;-74
2021/03/17 11:38:51;;;;;;;5.32;4.63;;;6.90;47.30;;;;;;5018215;28;20034;-78
2021/03/17 11:41:18;;;;;;;5.75;4.88;;;6.90;33.40;;;;;;5036163;28;20040;-75
2021/03/17 11:43:45;;;;;;;5.57;5.07;;;6.90;64.50;;;;;;5033987;28;20126;-75
2021/03/17 11:46:11;;;;;;;7.20;5.13;;;6.80;93.00;;;;;;5016708;28;20048;-74
2021/03/17 11:48:37;;;;;;;10.45;5.80;;;6.60;99.90;;;;;;5017339;28;20022;-76
2021/03/17 11:51:07;;;;;;;5.88;4.82;;;6.30;99.90;;;;;;5027400;28;20053;-75
2021/03/17 11:53:39;;;;;;;8.30;5.30;;;5.90;99.90;;;;;;5038587;28;20009;-76
2021/03/17 11:56:07;;;;;;;6.18;4.93;;;5.30;99.90;;;;;;5039819;28;20038;-76
2021/03/17 11:58:35;;;;;;;6.13;4.85;;;5.10;99.90;;;;;;5037192;28;20017;-75
2021/03/17 12:01:15;;;;;;;8.07;6.18;;;5.00;99.90;;;;;;5039349;28;20014;-77
2021/03/17 12:03:45;;;;;;;12.35;6.03;;;4.80;99.90;;;;;;5037618;28;20029;-77
2021/03/17 12:06:12;;;;;;;15.30;7.80;;;4.70;99.90;;;;;;5032635;28;20037;-77
2021/03/17 12:08:41;;;;;;;10.45;8.13;;;4.60;99.90;;;;;;5043386;28;20042;-75
2021/03/17 12:11:07;;;;;;;12.10;8.75;;;4.50;99.90;;;;;;5022286;28;20102;-76
2021/03/17 12:13:32;;;;;;;9.02;7.82;;;4.40;99.90;;;;;;5022031;28;20072;-77
2021/03/17 12:15:58;;;;;;;9.18;6.90;;;4.60;99.90;;;;;;5024312;28;20025;-76
2021/03/17 12:18:24;;;;;;;11.40;7.50;;;4.60;99.90;;;;;;5023291;28;20026;-77
2021/03/17 12:20:50;;;;;;;9.02;7.75;;;4.20;99.90;;;;;;5039709;28;20409;-77
2021/03/17 12:23:18;;;;;;;12.77;8.63;;;4.00;99.90;;;;;;5039161;28;20030;-76
2021/03/17 12:25:47;;;;;;;10.95;8.52;;;4.00;1.00;;;;;;5055392;28;20017;-77
2021/03/17 12:28:14;;;;;;;11.43;8.13;;;4.00;1.00;;;;;;5052123;28;20113;-77
2021/03/17 12:30:39;;;;;;;10.88;8.00;;;4.10;1.00;;;;;;5034118;28;20085;-76
2021/03/17 12:33:05;;;;;;;10.13;7.30;;;4.20;99.90;;;;;;5031464;28;20060;-77
2021/03/17 12:35:31;;;;;;;9.82;7.20;;;4.20;99.90;;;;;;5028276;28;20030;-77
2021/03/17 12:37:57;;;;;;;12.35;7.68;;;4.10;99.90;;;;;;5035543;28;20055;-76
2021/03/17 12:40:26;;;;;;;8.52;7.22;;;4.40;99.90;;;;;;5033909;28;20026;-77
2021/03/17 12:42:52;;;;;;;10.38;7.68;;;4.40;99.90;;;;;;5039859;28;20032;-77
2021/03/17 12:45:21;;;;;;;9.38;6.97;;;4.20;99.90;;;;;;5001906;28;20041;-76
2021/03/17 12:47:48;;;;;;;10.30;7.50;;;4.20;99.90;;;;;;5024081;28;20025;-77
2021/03/17 12:50:18;;;;;;;9.20;8.07;;;4.40;99.90;;;;;;5022868;28;20026;-76
2021/03/17 12:52:44;;;;;;;9.10;7.95;;;4.10;99.90;;;;;;5032067;28;20021;-77
2021/03/17 12:55:11;;;;;;;10.70;8.65;;;3.90;99.90;;;;;;5025074;28;20034;-76
2021/03/17 12:57:37;;;;;;;10.05;7.32;;;4.10;99.90;;;;;;5033958;28;20060;-76
2021/03/17 13:00:18;;;;;;;9.10;7.45;;;4.00;1.00;;;;;;5042078;28;20052;-77
2021/03/17 13:02:44;;;;;;;8.27;7.22;;;4.00;1.00;;;;;;5037454;28;20072;-77
2021/03/17 13:05:12;;;;;;;8.98;7.57;;;4.00;99.90;;;;;;5032302;28;20057;-76
2021/03/17 13:07:41;;;;;;;9.25;7.40;;;4.10;99.90;;;;;;5028336;28;20028;-76
2021/03/17 13:10:18;;;;;;;9.07;7.82;;;4.00;99.90;;;;;;5030114;28;20022;-77
2021/03/17 13:12:45;;;;;;;7.68;6.88;;;4.00;99.90;;;;;;5036249;28;20016;-76
2021/03/17 13:15:12;;;;;;;9.00;8.02;;;4.00;1.00;;;;;;5042509;28;20025;-76